createdAt,value
2023-03-10T00:00:48.025Z,99.99
2023-03-10T00:01:47.932Z,99.99
2023-03-10T00:02:47.924Z,99.99
2023-03-10T00:03:48.042Z,99.99
2023-03-10T00:04:47.911Z,99.99
2023-03-10T00:05:48.494Z,99.99
2023-03-10T00:06:47.998Z,99.99
2023-03-10T00:07:47.939Z,99.99
2023-03-10T00:08:48.127Z,99.99
2023-03-10T00:09:48.984Z,99.99
2023-03-10T00:10:48.894Z,99.99
2023-03-10T00:11:47.829Z,99.99
2023-03-10T00:12:48.144Z,99.99
2023-03-10T00:13:48.241Z,99.99
2023-03-10T00:14:49.022Z,99.99
2023-03-10T00:15:47.909Z,99.99
2023-03-10T00:16:48.823Z,99.99
2023-03-10T00:17:47.753Z,99.99
2023-03-10T00:18:47.786Z,99.99
2023-03-10T00:19:48.531Z,99.99
2023-03-10T00:20:48.441Z,99.99
2023-03-10T00:21:47.861Z,99.99
2023-03-10T00:22:47.672Z,99.99
2023-03-10T00:23:48.660Z,99.99
2023-03-10T00:24:47.687Z,99.99
2023-03-10T00:25:47.692Z,99.99
2023-03-10T00:26:47.932Z,99.99
2023-03-10T00:27:47.623Z,99.99
2023-03-10T00:28:47.572Z,99.99
2023-03-10T00:29:47.617Z,99.99
2023-03-10T00:30:47.614Z,99.99
2023-03-10T00:31:47.762Z,99.99
2023-03-10T00:32:48.394Z,99.99
2023-03-10T00:33:47.525Z,99.99
2023-03-10T00:34:47.537Z,99.99
2023-03-10T00:35:47.582Z,99.99
2023-03-10T00:36:48.449Z,99.99
2023-03-10T00:37:47.488Z,99.99
2023-03-10T00:38:47.582Z,99.99
2023-03-10T00:39:47.477Z,99.99
2023-03-10T00:40:47.460Z,99.99
2023-03-10T00:41:47.428Z,99.99
2023-03-10T00:42:47.420Z,99.99
2023-03-10T00:43:48.281Z,99.99
2023-03-10T00:44:47.405Z,99.99
2023-03-10T00:45:47.408Z,99.99
2023-03-10T00:46:47.502Z,99.99
2023-03-10T00:47:47.467Z,99.99
2023-03-10T00:48:47.377Z,99.99
2023-03-10T00:49:47.324Z,99.99
2023-03-10T00:50:47.304Z,99.99
2023-03-10T00:51:47.407Z,99.99
2023-03-10T00:52:47.275Z,99.99
2023-03-10T00:53:47.322Z,99.99
2023-03-10T00:54:47.273Z,99.99
2023-03-10T00:55:47.277Z,99.99
2023-03-10T00:56:47.336Z,99.99
2023-03-10T00:57:47.237Z,99.99
2023-03-10T00:58:47.212Z,99.99
2023-03-10T00:59:50.666Z,99.99
2023-03-10T01:00:47.218Z,99.99
2023-03-10T01:01:48.139Z,99.99
2023-03-10T01:02:47.173Z,99.99
2023-03-10T01:03:48.414Z,99.99
2023-03-10T01:04:47.254Z,99.99
2023-03-10T01:05:47.146Z,99.99
2023-03-10T01:06:47.137Z,99.99
2023-03-10T01:07:47.087Z,99.99
2023-03-10T01:08:48.042Z,99.99
2023-03-10T01:09:47.094Z,99.99
2023-03-10T01:10:47.357Z,99.99
2023-03-10T01:11:47.366Z,99.99
2023-03-10T01:12:47.095Z,99.99
2023-03-10T01:13:47.074Z,99.99
2023-03-10T01:14:47.295Z,99.99
2023-03-10T01:15:47.107Z,99.99
2023-03-10T01:16:47.094Z,99.99
2023-03-10T01:17:46.962Z,99.99
2023-03-10T01:18:46.948Z,99.99
2023-03-10T01:19:46.959Z,99.99
2023-03-10T01:20:47.033Z,99.99
2023-03-10T01:21:46.954Z,99.99
2023-03-10T01:22:48.154Z,99.99
2023-03-10T01:23:46.973Z,99.99
2023-03-10T01:24:47.059Z,99.99
2023-03-10T01:25:46.976Z,99.99
2023-03-10T01:26:47.408Z,99.99
2023-03-10T01:27:46.889Z,99.99
2023-03-10T01:28:46.942Z,99.99
2023-03-10T01:29:47.105Z,99.99
2023-03-10T01:30:46.813Z,99.99
2023-03-10T01:31:46.899Z,99.99
2023-03-10T01:32:46.868Z,99.99
2023-03-10T01:33:46.758Z,99.99
2023-03-10T01:34:46.750Z,99.99
2023-03-10T01:35:47.955Z,99.99
2023-03-10T01:36:46.772Z,99.99
2023-03-10T01:37:46.795Z,99.99
2023-03-10T01:38:46.798Z,99.99
2023-03-10T01:39:46.692Z,99.99
2023-03-10T01:40:46.739Z,99.99
2023-03-10T01:41:46.737Z,99.99
2023-03-10T01:42:46.676Z,99.99
2023-03-10T01:43:46.734Z,99.99
2023-03-10T01:44:46.643Z,99.99
2023-03-10T01:45:46.631Z,99.99
2023-03-10T01:46:46.716Z,99.99
2023-03-10T01:47:46.590Z,99.99
2023-03-10T01:48:46.612Z,99.99
2023-03-10T01:49:46.554Z,99.99
2023-03-10T01:50:46.795Z,99.99
2023-03-10T01:51:46.563Z,99.99
2023-03-10T01:52:46.542Z,99.99
2023-03-10T01:53:46.562Z,99.99
2023-03-10T01:54:46.548Z,99.99
2023-03-10T01:55:46.550Z,99.99
2023-03-10T01:56:46.618Z,99.99
2023-03-10T01:57:46.863Z,99.99
2023-03-10T01:58:47.223Z,99.99
2023-03-10T01:59:46.441Z,99.99
2023-03-10T02:00:46.454Z,99.99
2023-03-10T02:01:46.525Z,99.99
2023-03-10T02:02:46.425Z,99.99
2023-03-10T02:03:46.493Z,99.99
2023-03-10T02:04:46.497Z,99.99
2023-03-10T02:05:46.399Z,99.99
2023-03-10T02:06:47.486Z,99.99
2023-03-10T02:07:46.455Z,99.99
2023-03-10T02:08:46.382Z,99.99
2023-03-10T02:09:46.335Z,99.99
2023-03-10T02:10:46.322Z,99.99
2023-03-10T02:11:46.264Z,99.99
2023-03-10T02:12:46.305Z,99.99
2023-03-10T02:13:46.581Z,99.99
2023-03-10T02:14:47.226Z,99.99
2023-03-10T02:15:46.248Z,99.99
2023-03-10T02:16:47.090Z,99.99
2023-03-10T02:17:46.392Z,99.99
2023-03-10T02:18:46.350Z,99.99
2023-03-10T02:19:46.415Z,99.99
2023-03-10T02:20:46.220Z,99.99
2023-03-10T02:21:46.250Z,99.99
2023-03-10T02:22:46.160Z,99.99
2023-03-10T02:23:58.785Z,99.99
2023-03-10T02:24:47.135Z,99.99
2023-03-10T02:25:46.334Z,99.99
2023-03-10T02:26:46.141Z,99.99
2023-03-10T02:27:46.484Z,99.99
2023-03-10T02:28:46.072Z,99.99
2023-03-10T02:29:58.316Z,99.99
2023-03-10T02:30:47.061Z,99.99
2023-03-10T02:31:47.048Z,99.99
2023-03-10T02:32:46.177Z,99.99
2023-03-10T02:33:46.590Z,99.99
2023-03-10T02:34:45.997Z,99.99
2023-03-10T02:35:46.113Z,99.99
2023-03-10T02:36:46.949Z,99.99
2023-03-10T02:37:46.108Z,99.99
2023-03-10T02:38:46.030Z,99.99
2023-03-10T02:39:46.885Z,99.99
2023-03-10T02:40:46.787Z,99.99
2023-03-10T02:41:45.928Z,99.99
2023-03-10T02:42:45.912Z,99.99
2023-03-10T02:43:45.937Z,99.99
2023-03-10T02:44:45.894Z,99.99
2023-03-10T02:45:45.973Z,99.99
2023-03-10T02:46:45.889Z,99.99
2023-03-10T02:47:45.844Z,99.99
2023-03-10T02:48:45.843Z,99.99
2023-03-10T02:49:45.839Z,99.99
2023-03-10T02:50:45.861Z,99.99
2023-03-10T02:51:45.980Z,99.99
2023-03-10T02:52:46.300Z,99.99
2023-03-10T02:53:45.835Z,99.99
2023-03-10T02:54:45.916Z,99.99
2023-03-10T02:55:45.836Z,99.99
2023-03-10T02:56:46.783Z,99.99
2023-03-10T02:57:46.726Z,99.99
2023-03-10T02:58:46.597Z,99.99
2023-03-10T02:59:45.675Z,99.99
2023-03-10T03:00:45.766Z,99.99
2023-03-10T03:01:45.698Z,99.99
2023-03-10T03:02:45.668Z,99.99
2023-03-10T03:03:45.776Z,99.99
2023-03-10T03:04:46.160Z,99.99
2023-03-10T03:05:45.640Z,99.99
2023-03-10T03:06:45.678Z,99.99
2023-03-10T03:07:45.613Z,99.99
2023-03-10T03:08:45.669Z,99.99
2023-03-10T03:09:45.564Z,99.99
2023-03-10T03:10:45.599Z,99.99
2023-03-10T03:11:45.522Z,99.99
2023-03-10T03:12:45.512Z,99.99
2023-03-10T03:13:45.540Z,99.99
2023-03-10T03:14:45.503Z,99.99
2023-03-10T03:15:45.616Z,99.99
2023-03-10T03:16:45.669Z,99.99
2023-03-10T03:17:45.486Z,99.99
2023-03-10T03:18:45.483Z,99.99
2023-03-10T03:19:46.622Z,99.99
2023-03-10T03:20:45.462Z,99.99
2023-03-10T03:21:45.422Z,99.99
2023-03-10T03:22:45.400Z,99.99
2023-03-10T03:23:45.380Z,99.99
2023-03-10T03:24:45.401Z,99.99
2023-03-10T03:25:45.427Z,99.99
2023-03-10T03:26:45.376Z,99.99
2023-03-10T03:27:45.369Z,99.99
2023-03-10T03:28:45.364Z,99.99
2023-03-10T03:29:45.413Z,99.99
2023-03-10T03:30:45.321Z,99.99
2023-03-10T03:31:45.356Z,99.99
2023-03-10T03:32:45.337Z,99.99
2023-03-10T03:33:45.299Z,99.99
2023-03-10T03:34:45.257Z,99.99
2023-03-10T03:35:45.273Z,99.99
2023-03-10T03:36:46.202Z,99.99
2023-03-10T03:37:45.226Z,99.99
2023-03-10T03:38:45.235Z,99.99
2023-03-10T03:39:45.305Z,99.99
2023-03-10T03:40:45.208Z,99.99
2023-03-10T03:41:45.152Z,99.99
2023-03-10T03:42:46.122Z,99.99
2023-03-10T03:43:45.393Z,99.99
2023-03-10T03:44:46.209Z,99.99
2023-03-10T03:45:45.171Z,99.99
2023-03-10T03:46:45.625Z,99.99
2023-03-10T03:47:45.126Z,99.99
2023-03-10T03:48:45.102Z,99.99
2023-03-10T03:49:45.078Z,99.99
2023-03-10T03:50:45.142Z,99.99
2023-03-10T03:51:45.027Z,99.99
2023-03-10T03:52:45.048Z,99.99
2023-03-10T03:53:45.914Z,99.99
2023-03-10T03:54:45.009Z,99.99
2023-03-10T03:55:45.498Z,99.99
2023-03-10T03:56:45.081Z,99.99
2023-03-10T03:57:45.246Z,99.99
2023-03-10T03:58:44.966Z,99.99
2023-03-10T03:59:44.941Z,99.99
2023-03-10T04:00:44.969Z,99.99
2023-03-10T04:01:44.953Z,99.99
2023-03-10T04:02:45.296Z,99.99
2023-03-10T04:03:44.951Z,99.99
2023-03-10T04:04:44.905Z,99.99
2023-03-10T04:05:44.894Z,99.99
2023-03-10T04:06:45.067Z,99.99
2023-03-10T04:07:44.838Z,99.99
2023-03-10T04:08:44.859Z,99.99
2023-03-10T04:09:44.887Z,99.99
2023-03-10T04:10:45.818Z,99.99
2023-03-10T04:11:44.800Z,99.99
2023-03-10T04:12:44.799Z,99.99
2023-03-10T04:13:45.174Z,99.99
2023-03-10T04:14:44.775Z,99.99
2023-03-10T04:15:44.780Z,99.99
2023-03-10T04:16:45.758Z,99.99
2023-03-10T04:17:44.701Z,99.99
2023-03-10T04:18:44.847Z,99.99
2023-03-10T04:19:49.125Z,99.99
2023-03-10T04:20:45.765Z,99.99
2023-03-10T04:21:44.664Z,99.99
2023-03-10T04:22:44.737Z,99.99
2023-03-10T04:23:45.600Z,99.99
2023-03-10T04:24:44.790Z,99.99
2023-03-10T04:25:44.606Z,99.99
2023-03-10T04:26:44.658Z,99.99
2023-03-10T04:27:44.606Z,99.99
2023-03-10T04:28:45.659Z,99.99
2023-03-10T04:29:44.722Z,99.99
2023-03-10T04:30:44.586Z,99.99
2023-03-10T04:31:50.526Z,99.99
2023-03-10T04:32:47.921Z,99.99
2023-03-10T04:33:45.664Z,99.99
2023-03-10T04:34:45.560Z,99.99
2023-03-10T04:35:44.574Z,99.99
2023-03-10T04:36:44.546Z,99.99
2023-03-10T04:37:44.486Z,99.99
2023-03-10T04:38:44.492Z,99.99
2023-03-10T04:39:44.602Z,99.99
2023-03-10T04:40:44.441Z,99.99
2023-03-10T04:41:44.440Z,99.99
2023-03-10T04:42:44.391Z,99.99
2023-03-10T04:43:47.136Z,99.99
2023-03-10T04:44:44.408Z,99.99
2023-03-10T04:45:44.384Z,99.99
2023-03-10T04:46:44.441Z,99.99
2023-03-10T04:47:44.581Z,99.99
2023-03-10T04:48:44.475Z,99.99
2023-03-10T04:49:44.353Z,99.99
2023-03-10T04:50:44.325Z,99.99
2023-03-10T04:51:44.336Z,99.99
2023-03-10T04:52:44.332Z,99.99
2023-03-10T04:53:45.276Z,99.99
2023-03-10T04:54:44.289Z,99.99
2023-03-10T04:55:44.264Z,99.99
2023-03-10T04:56:44.992Z,99.99
2023-03-10T04:57:44.251Z,99.99
2023-03-10T04:58:44.564Z,99.99
2023-03-10T04:59:44.216Z,99.99
2023-03-10T05:01:00.339Z,99.99
2023-03-10T05:01:45.285Z,99.99
2023-03-10T05:02:44.181Z,99.99
2023-03-10T05:03:44.161Z,99.99
2023-03-10T05:04:44.281Z,99.99
2023-03-10T05:05:44.144Z,99.99
2023-03-10T05:06:44.117Z,99.99
2023-03-10T05:07:44.235Z,99.99
2023-03-10T05:08:44.094Z,99.99
2023-03-10T05:09:44.048Z,99.99
2023-03-10T05:10:44.073Z,99.99
2023-03-10T05:11:44.065Z,99.99
2023-03-10T05:12:44.869Z,99.99
2023-03-10T05:13:44.257Z,99.99
2023-03-10T05:14:44.094Z,99.99
2023-03-10T05:15:44.118Z,99.99
2023-03-10T05:16:44.439Z,99.99
2023-03-10T05:17:44.127Z,99.99
2023-03-10T05:18:43.962Z,99.99
2023-03-10T05:19:43.966Z,99.99
2023-03-10T05:20:44.143Z,99.99
2023-03-10T05:21:44.059Z,99.99
2023-03-10T05:22:45.049Z,99.99
2023-03-10T05:23:44.145Z,99.99
2023-03-10T05:24:43.900Z,99.99
2023-03-10T05:25:43.875Z,99.99
2023-03-10T05:26:44.863Z,99.99
2023-03-10T05:27:43.953Z,99.99
2023-03-10T05:28:43.846Z,99.99
2023-03-10T05:29:44.883Z,99.99
2023-03-10T05:30:43.834Z,99.99
2023-03-10T05:31:44.784Z,99.99
2023-03-10T05:32:43.919Z,99.99
2023-03-10T05:33:45.017Z,99.99
2023-03-10T05:34:44.782Z,99.99
2023-03-10T05:35:44.256Z,99.99
2023-03-10T05:36:43.874Z,99.99
2023-03-10T05:37:43.788Z,99.99
2023-03-10T05:38:44.177Z,99.99
2023-03-10T05:39:43.749Z,99.99
2023-03-10T05:40:43.708Z,99.99
2023-03-10T05:41:43.694Z,99.99
2023-03-10T05:42:45.093Z,99.99
2023-03-10T05:43:44.485Z,99.99
2023-03-10T05:44:43.650Z,99.99
2023-03-10T05:45:43.716Z,99.99
2023-03-10T05:46:43.745Z,99.99
2023-03-10T05:47:43.836Z,99.99
2023-03-10T05:48:43.617Z,99.99
2023-03-10T05:49:43.684Z,99.99
2023-03-10T05:50:43.573Z,99.99
2023-03-10T05:51:43.549Z,99.99
2023-03-10T05:52:43.589Z,99.99
2023-03-10T05:53:44.639Z,99.99
2023-03-10T05:54:44.564Z,99.99
2023-03-10T05:55:43.561Z,99.99
2023-03-10T05:56:44.348Z,99.99
2023-03-10T05:57:43.608Z,99.99
2023-03-10T05:58:43.458Z,99.99
2023-03-10T05:59:44.058Z,99.99
2023-03-10T06:00:43.841Z,99.99
2023-03-10T06:01:43.480Z,99.99
2023-03-10T06:02:43.567Z,99.99
2023-03-10T06:03:43.825Z,99.99
2023-03-10T06:04:43.448Z,99.99
2023-03-10T06:05:43.412Z,99.99
2023-03-10T06:06:43.540Z,99.99
2023-03-10T06:07:43.507Z,99.99
2023-03-10T06:08:44.221Z,99.99
2023-03-10T06:09:43.323Z,99.99
2023-03-10T06:10:43.428Z,99.99
2023-03-10T06:11:43.428Z,99.99
2023-03-10T06:12:43.278Z,99.99
2023-03-10T06:13:43.752Z,99.99
2023-03-10T06:14:44.192Z,99.99
2023-03-10T06:15:44.131Z,99.99
2023-03-10T06:16:44.562Z,99.99
2023-03-10T06:17:44.173Z,99.99
2023-03-10T06:18:43.265Z,99.99
2023-03-10T06:19:44.198Z,99.99
2023-03-10T06:20:43.203Z,99.99
2023-03-10T06:21:43.179Z,99.99
2023-03-10T06:22:44.412Z,99.99
2023-03-10T06:23:44.191Z,99.99
2023-03-10T06:24:43.151Z,99.99
2023-03-10T06:25:43.197Z,99.99
2023-03-10T06:26:43.385Z,99.99
2023-03-10T06:27:43.924Z,99.99
2023-03-10T06:28:43.138Z,99.99
2023-03-10T06:29:43.114Z,99.99
2023-03-10T06:30:43.163Z,99.99
2023-03-10T06:31:43.218Z,99.99
2023-03-10T06:32:44.238Z,99.99
2023-03-10T06:33:43.363Z,99.99
2023-03-10T06:34:43.787Z,99.99
2023-03-10T06:35:43.054Z,99.99
2023-03-10T06:36:43.023Z,99.99
2023-03-10T06:37:43.100Z,99.99
2023-03-10T06:38:43.135Z,99.99
2023-03-10T06:39:43.088Z,99.99
2023-03-10T06:40:43.077Z,99.99
2023-03-10T06:41:43.259Z,99.99
2023-03-10T06:42:43.006Z,99.99
2023-03-10T06:43:43.939Z,99.99
2023-03-10T06:44:42.877Z,99.99
2023-03-10T06:45:42.935Z,99.99
2023-03-10T06:46:43.647Z,99.99
2023-03-10T06:47:44.069Z,99.99
2023-03-10T06:48:43.874Z,99.99
2023-03-10T06:49:43.828Z,99.99
2023-03-10T06:50:43.141Z,99.99
2023-03-10T06:51:43.700Z,99.99
2023-03-10T06:52:43.585Z,99.99
2023-03-10T06:53:44.012Z,99.99
2023-03-10T06:54:42.808Z,99.99
2023-03-10T06:55:43.299Z,99.99
2023-03-10T06:56:43.957Z,99.99
2023-03-10T06:57:43.644Z,99.99
2023-03-10T06:58:42.743Z,99.99
2023-03-10T06:59:42.900Z,99.99
2023-03-10T07:00:42.761Z,99.99
2023-03-10T07:01:42.762Z,99.99
2023-03-10T07:02:42.648Z,99.99
2023-03-10T07:03:43.811Z,99.99
2023-03-10T07:04:43.480Z,99.99
2023-03-10T07:05:42.652Z,99.99
2023-03-10T07:06:42.628Z,99.99
2023-03-10T07:07:42.648Z,99.99
2023-03-10T07:08:43.579Z,99.99
2023-03-10T07:09:44.010Z,99.99
2023-03-10T07:10:42.544Z,99.99
2023-03-10T07:11:42.540Z,99.99
2023-03-10T07:12:42.951Z,99.99
2023-03-10T07:13:42.589Z,99.99
2023-03-10T07:14:42.522Z,99.99
2023-03-10T07:15:42.507Z,99.99
2023-03-10T07:16:42.580Z,99.99
2023-03-10T07:17:43.740Z,99.99
2023-03-10T07:18:42.476Z,99.99
2023-03-10T07:19:43.437Z,99.99
2023-03-10T07:20:42.413Z,99.99
2023-03-10T07:21:42.582Z,99.99
2023-03-10T07:22:42.384Z,99.99
2023-03-10T07:23:42.376Z,99.99
2023-03-10T07:24:42.538Z,99.99
2023-03-10T07:25:43.480Z,99.99
2023-03-10T07:26:42.439Z,99.99
2023-03-10T07:27:43.416Z,99.99
2023-03-10T07:28:43.200Z,99.99
2023-03-10T07:29:43.368Z,99.99
2023-03-10T07:30:42.545Z,99.99
2023-03-10T07:31:42.354Z,99.99
2023-03-10T07:32:42.308Z,99.99
2023-03-10T07:33:42.267Z,99.99
2023-03-10T07:34:42.483Z,99.99
2023-03-10T07:35:42.312Z,99.99
2023-03-10T07:36:42.259Z,99.99
2023-03-10T07:37:42.336Z,99.99
2023-03-10T07:38:42.824Z,99.99
2023-03-10T07:39:42.329Z,99.99
2023-03-10T07:40:42.181Z,99.99
2023-03-10T07:41:42.155Z,99.99
2023-03-10T07:42:42.241Z,99.99
2023-03-10T07:43:42.173Z,99.99
2023-03-10T07:44:42.685Z,99.99
2023-03-10T07:45:43.107Z,99.99
2023-03-10T07:46:43.013Z,99.99
2023-03-10T07:47:42.203Z,99.99
2023-03-10T07:48:42.112Z,99.99
2023-03-10T07:49:42.208Z,99.99
2023-03-10T07:50:42.113Z,99.99
2023-03-10T07:51:42.072Z,99.99
2023-03-10T07:52:42.103Z,99.99
2023-03-10T07:53:42.036Z,99.99
2023-03-10T07:54:42.374Z,99.99
2023-03-10T07:55:43.200Z,99.99
2023-03-10T07:56:41.964Z,99.99
2023-03-10T07:57:42.992Z,99.99
2023-03-10T07:58:41.979Z,99.99
2023-03-10T07:59:42.782Z,99.99
2023-03-10T08:00:42.112Z,99.99
2023-03-10T08:01:42.609Z,99.99
2023-03-10T08:02:41.961Z,99.99
2023-03-10T08:03:42.148Z,99.99
2023-03-10T08:04:43.116Z,99.99
2023-03-10T08:05:42.138Z,99.99
2023-03-10T08:06:41.860Z,99.99
2023-03-10T08:07:41.859Z,99.99
2023-03-10T08:08:41.873Z,99.99
2023-03-10T08:09:42.830Z,99.99
2023-03-10T08:10:42.746Z,99.99
2023-03-10T08:11:41.915Z,99.99
2023-03-10T08:12:42.557Z,99.99
2023-03-10T08:13:42.999Z,99.99
2023-03-10T08:14:42.075Z,99.99
2023-03-10T08:15:42.384Z,99.99
2023-03-10T08:16:41.744Z,99.99
2023-03-10T08:17:41.749Z,99.99
2023-03-10T08:18:42.504Z,99.99
2023-03-10T08:19:41.692Z,99.99
2023-03-10T08:20:41.657Z,99.99
2023-03-10T08:21:42.704Z,99.99
2023-03-10T08:22:41.693Z,99.99
2023-03-10T08:23:41.664Z,99.99
2023-03-10T08:24:42.428Z,99.99
2023-03-10T08:25:41.652Z,99.99
2023-03-10T08:26:42.543Z,99.99
2023-03-10T08:27:41.766Z,99.99
2023-03-10T08:28:42.199Z,99.99
2023-03-10T08:29:41.915Z,99.99
2023-03-10T08:30:57.078Z,99.99
2023-03-10T08:31:42.687Z,99.99
2023-03-10T08:32:41.688Z,99.99
2023-03-10T08:33:41.544Z,99.99
2023-03-10T08:34:42.547Z,99.99
2023-03-10T08:35:41.639Z,99.99
2023-03-10T08:36:41.494Z,99.99
2023-03-10T08:37:43.250Z,99.99
2023-03-10T08:38:42.172Z,99.99
2023-03-10T08:39:42.515Z,99.99
2023-03-10T08:40:41.407Z,99.99
2023-03-10T08:41:41.753Z,99.99
2023-03-10T08:42:41.936Z,99.99
2023-03-10T08:43:42.158Z,99.99
2023-03-10T08:44:41.552Z,99.99
2023-03-10T08:45:42.459Z,99.99
2023-03-10T08:46:41.489Z,99.99
2023-03-10T08:47:41.462Z,99.99
2023-03-10T08:48:42.851Z,99.99
2023-03-10T08:49:44.463Z,99.99
2023-03-10T08:50:41.518Z,99.99
2023-03-10T08:51:42.395Z,99.99
2023-03-10T08:52:41.295Z,99.99
2023-03-10T08:53:41.515Z,99.99
2023-03-10T08:54:41.283Z,99.99
2023-03-10T08:55:41.342Z,99.99
2023-03-10T08:56:41.233Z,99.99
2023-03-10T08:57:41.181Z,99.99
2023-03-10T08:58:41.363Z,99.99
2023-03-10T08:59:42.134Z,99.99
2023-03-10T09:00:41.199Z,99.99
2023-03-10T09:01:41.293Z,99.99
2023-03-10T09:02:41.438Z,99.99
2023-03-10T09:03:41.280Z,99.99
2023-03-10T09:04:41.134Z,99.99
2023-03-10T09:05:42.081Z,99.99
2023-03-10T09:06:41.150Z,99.99
2023-03-10T09:07:41.161Z,99.99
2023-03-10T09:08:42.010Z,99.99
2023-03-10T09:09:42.206Z,99.99
2023-03-10T09:10:42.136Z,99.99
2023-03-10T09:11:41.106Z,99.99
2023-03-10T09:12:41.918Z,99.99
2023-03-10T09:13:41.078Z,99.99
2023-03-10T09:14:41.480Z,99.99
2023-03-10T09:15:42.144Z,99.99
2023-03-10T09:16:41.374Z,99.99
2023-03-10T09:17:41.173Z,99.99
2023-03-10T09:18:41.081Z,99.99
2023-03-10T09:19:41.768Z,99.99
2023-03-10T09:20:42.195Z,99.99
2023-03-10T09:21:40.989Z,99.99
2023-03-10T09:22:41.989Z,99.99
2023-03-10T09:23:40.932Z,99.99
2023-03-10T09:24:40.836Z,99.99
2023-03-10T09:25:40.817Z,99.99
2023-03-10T09:26:44.508Z,99.99
2023-03-10T09:27:41.916Z,99.99
2023-03-10T09:28:40.836Z,99.99
2023-03-10T09:29:43.492Z,99.99
2023-03-10T09:30:40.838Z,99.99
2023-03-10T09:31:40.814Z,99.99
2023-03-10T09:32:41.257Z,99.99
2023-03-10T09:33:41.951Z,99.99
2023-03-10T09:34:41.850Z,99.99
2023-03-10T09:35:41.711Z,99.99
2023-03-10T09:36:41.799Z,99.99
2023-03-10T09:37:40.801Z,99.99
2023-03-10T09:38:40.798Z,99.99
2023-03-10T09:39:40.686Z,99.99
2023-03-10T09:40:40.679Z,99.99
2023-03-10T09:41:40.644Z,99.99
2023-03-10T09:42:40.641Z,99.99
2023-03-10T09:43:40.695Z,99.99
2023-03-10T09:44:40.659Z,99.99
2023-03-10T09:45:40.622Z,99.99
2023-03-10T09:46:40.597Z,99.99
2023-03-10T09:47:40.588Z,99.99
2023-03-10T09:48:40.618Z,99.99
2023-03-10T09:49:40.671Z,99.99
2023-03-10T09:50:41.488Z,99.99
2023-03-10T09:51:40.526Z,99.99
2023-03-10T09:52:40.704Z,99.99
2023-03-10T09:53:40.630Z,99.99
2023-03-10T09:54:42.148Z,99.99
2023-03-10T09:55:47.355Z,99.99
2023-03-10T09:56:41.475Z,99.99
2023-03-10T09:57:40.528Z,99.99
2023-03-10T09:58:41.390Z,99.99
2023-03-10T09:59:40.429Z,99.99
2023-03-10T10:00:40.408Z,99.99
2023-03-10T10:01:41.309Z,99.99
2023-03-10T10:02:40.573Z,99.99
2023-03-10T10:03:57.881Z,99.99
2023-03-10T10:04:41.480Z,99.99
2023-03-10T10:05:41.441Z,99.99
2023-03-10T10:06:40.347Z,99.99
2023-03-10T10:07:40.306Z,99.99
2023-03-10T10:08:40.289Z,99.99
2023-03-10T10:09:40.497Z,99.99
2023-03-10T10:10:40.265Z,99.99
2023-03-10T10:11:40.275Z,99.99
2023-03-10T10:12:40.278Z,99.99
2023-03-10T10:13:42.386Z,99.99
2023-03-10T10:14:45.165Z,99.99
2023-03-10T10:15:41.246Z,99.99
2023-03-10T10:16:40.232Z,99.99
2023-03-10T10:17:50.858Z,99.99
2023-03-10T10:18:42.284Z,99.99
2023-03-10T10:19:40.337Z,99.99
2023-03-10T10:20:40.150Z,99.99
2023-03-10T10:21:42.603Z,99.99
2023-03-10T10:22:40.140Z,99.99
2023-03-10T10:23:40.266Z,99.99
2023-03-10T10:24:40.149Z,99.99
2023-03-10T10:25:42.338Z,99.99
2023-03-10T10:26:40.113Z,99.99
2023-03-10T10:27:40.530Z,99.99
2023-03-10T10:28:40.084Z,99.99
2023-03-10T10:29:40.048Z,99.99
2023-03-10T10:30:40.142Z,99.99
2023-03-10T10:31:40.008Z,99.99
2023-03-10T10:32:40.336Z,99.99
2023-03-10T10:33:42.219Z,99.99
2023-03-10T10:34:40.095Z,99.99
2023-03-10T10:35:40.070Z,99.99
2023-03-10T10:36:39.949Z,99.99
2023-03-10T10:37:41.552Z,99.99
2023-03-10T10:38:40.829Z,99.99
2023-03-10T10:39:41.037Z,99.99
2023-03-10T10:40:39.975Z,99.99
2023-03-10T10:41:39.871Z,99.99
2023-03-10T10:42:39.881Z,99.99
2023-03-10T10:43:40.813Z,99.99
2023-03-10T10:44:39.934Z,99.99
2023-03-10T10:45:39.808Z,99.99
2023-03-10T10:46:40.214Z,99.99
2023-03-10T10:47:39.832Z,99.99
2023-03-10T10:48:39.797Z,99.99
2023-03-10T10:49:39.835Z,99.99
2023-03-10T10:50:39.823Z,99.99
2023-03-10T10:51:39.799Z,99.99
2023-03-10T10:52:39.766Z,99.99
2023-03-10T10:53:39.739Z,99.99
2023-03-10T10:54:39.719Z,99.99
2023-03-10T10:55:39.732Z,99.99
2023-03-10T10:56:39.858Z,99.99
2023-03-10T10:57:39.807Z,99.99
2023-03-10T10:58:39.736Z,99.99
2023-03-10T10:59:39.643Z,99.99
2023-03-10T11:00:39.654Z,99.99
2023-03-10T11:01:39.759Z,99.99
2023-03-10T11:02:39.723Z,99.99
2023-03-10T11:03:39.604Z,99.99
2023-03-10T11:04:39.598Z,99.99
2023-03-10T11:05:39.594Z,99.99
2023-03-10T11:06:40.699Z,99.99
2023-03-10T11:07:39.639Z,99.99
2023-03-10T11:08:39.591Z,99.99
2023-03-10T11:09:39.636Z,99.99
2023-03-10T11:10:39.491Z,99.99
2023-03-10T11:11:39.505Z,99.99
2023-03-10T11:12:39.537Z,99.99
2023-03-10T11:13:40.549Z,99.99
2023-03-10T11:14:39.659Z,99.99
2023-03-10T11:15:40.462Z,99.99
2023-03-10T11:16:39.435Z,99.99
2023-03-10T11:17:39.434Z,99.99
2023-03-10T11:18:39.434Z,99.99
2023-03-10T11:19:39.413Z,99.99
2023-03-10T11:20:39.426Z,99.99
2023-03-10T11:21:40.287Z,99.99
2023-03-10T11:22:39.522Z,99.99
2023-03-10T11:23:39.396Z,99.99
2023-03-10T11:24:39.354Z,99.99
2023-03-10T11:25:39.318Z,99.99
2023-03-10T11:26:39.455Z,99.99
2023-03-10T11:27:39.312Z,99.99
2023-03-10T11:28:39.302Z,99.99
2023-03-10T11:29:39.393Z,99.99
2023-03-10T11:30:39.442Z,99.99
2023-03-10T11:31:39.254Z,99.99
2023-03-10T11:32:39.311Z,99.99
2023-03-10T11:33:39.524Z,99.99
2023-03-10T11:34:39.674Z,99.99
2023-03-10T11:35:40.170Z,99.90
2023-03-10T11:36:53.312Z,99.99
2023-03-10T11:37:40.329Z,99.99
2023-03-10T11:38:40.193Z,99.99
2023-03-10T11:39:39.141Z,99.99
2023-03-10T11:40:39.119Z,99.99
2023-03-10T11:41:39.157Z,99.99
2023-03-10T11:42:39.188Z,99.95
2023-03-10T11:43:39.259Z,99.99
2023-03-10T11:44:39.081Z,99.95
2023-03-10T11:45:39.769Z,99.49
2023-03-10T11:46:39.518Z,99.38
2023-03-10T11:47:41.989Z,99.55
2023-03-10T11:48:39.107Z,99.44
2023-03-10T11:49:39.064Z,99.13
2023-03-10T11:50:39.015Z,99.09
2023-03-10T11:51:38.997Z,98.72
2023-03-10T11:52:39.620Z,98.82
2023-03-10T11:53:40.474Z,99.24
2023-03-10T11:54:38.981Z,99.30
2023-03-10T11:55:38.946Z,98.57
2023-03-10T11:56:38.929Z,98.88
2023-03-10T11:57:38.984Z,98.88
2023-03-10T11:58:39.811Z,99.19
2023-03-10T11:59:38.963Z,99.51
2023-03-10T12:00:40.134Z,98.82
2023-03-10T12:01:38.889Z,98.41
2023-03-10T12:02:38.868Z,98.72
2023-03-10T12:03:39.207Z,98.82
2023-03-10T12:04:38.968Z,98.35
2023-03-10T12:05:38.871Z,98.35
2023-03-10T12:06:38.902Z,98.66
2023-03-10T12:07:38.800Z,98.60
2023-03-10T12:08:39.110Z,98.81
2023-03-10T12:09:38.803Z,99.18
2023-03-10T12:10:38.746Z,99.59
2023-03-10T12:11:38.728Z,99.65
2023-03-10T12:12:39.105Z,99.55
2023-03-10T12:13:39.898Z,99.65
2023-03-10T12:14:39.808Z,99.65
2023-03-10T12:15:38.926Z,99.55
2023-03-10T12:16:39.607Z,99.55
2023-03-10T12:17:38.776Z,99.55
2023-03-10T12:18:39.418Z,99.49
2023-03-10T12:19:38.720Z,99.59
2023-03-10T12:20:38.646Z,99.96
2023-03-10T12:21:38.720Z,99.96
2023-03-10T12:22:38.590Z,99.96
2023-03-10T12:23:38.583Z,99.28
2023-03-10T12:24:38.600Z,99.38
2023-03-10T12:25:38.622Z,99.38
2023-03-10T12:26:39.452Z,99.38
2023-03-10T12:27:38.710Z,99.54
2023-03-10T12:28:38.509Z,99.64
2023-03-10T12:29:38.602Z,99.95
2023-03-10T12:30:38.514Z,99.99
2023-03-10T12:31:38.614Z,99.54
2023-03-10T12:32:38.566Z,99.43
2023-03-10T12:33:38.483Z,99.64
2023-03-10T12:34:39.414Z,99.64
2023-03-10T12:35:38.477Z,99.74
2023-03-10T12:36:38.421Z,99.99
2023-03-10T12:37:38.417Z,99.99
2023-03-10T12:38:38.495Z,99.99
2023-03-10T12:39:38.408Z,99.99
2023-03-10T12:40:38.503Z,99.99
2023-03-10T12:41:38.346Z,99.99
2023-03-10T12:42:38.361Z,99.99
2023-03-10T12:43:39.569Z,99.99
2023-03-10T12:44:38.302Z,99.99
2023-03-10T12:45:39.266Z,99.99
2023-03-10T12:46:38.474Z,99.99
2023-03-10T12:47:38.482Z,99.99
2023-03-10T12:48:38.274Z,99.99
2023-03-10T12:49:38.324Z,99.99
2023-03-10T12:50:38.258Z,99.99
2023-03-10T12:51:38.420Z,99.99
2023-03-10T12:52:38.243Z,99.99